Time;durP1;ratioP1;P1;durP2;ratioP2;P2;SDS_P1;SDS_P2;PMS_P1;PMS_P2;Temp;Humidity;BMP_temperature;BMP_pressure;BME280_temperature;BME280_humidity;BME280_pressure;Samples;Min_cycle;Max_cycle;Signal;HPM_P1;HPM_P2
2021/12/17 00:04:57;;;;;;;23.60;11.07;;;7.80;99.90;;;;;;5043968;28;20468;-51
2021/12/17 00:07:24;;;;;;;23.73;9.73;;;7.70;99.90;;;;;;5051463;28;20030;-53
2021/12/17 00:09:52;;;;;;;23.95;10.73;;;7.70;99.90;;;;;;5040514;28;20033;-54
2021/12/17 00:12:21;;;;;;;24.90;11.23;;;7.70;99.90;;;;;;5047563;28;20025;-55
2021/12/17 00:14:49;;;;;;;26.58;11.60;;;7.70;99.90;;;;;;5047786;28;20502;-53
2021/12/17 00:17:21;;;;;;;22.85;11.90;;;7.70;99.90;;;;;;5049176;28;20029;-53
2021/12/17 00:50:02;;;;;;;24.95;12.07;;;7.60;99.90;;;;;;5048885;28;20029;-56
2021/12/17 00:52:31;;;;;;;27.42;11.60;;;7.50;99.90;;;;;;5048249;28;20336;-56
2021/12/17 00:54:56;;;;;;;25.33;11.70;;;7.50;99.90;;;;;;5048555;28;20051;-53
2021/12/17 00:57:35;;;;;;;24.63;11.35;;;7.40;99.90;;;;;;5047767;28;20050;-53
2021/12/17 01:00:01;;;;;;;23.40;10.48;;;7.50;99.90;;;;;;5051309;28;20079;-52
2021/12/17 01:02:31;;;;;;;21.58;10.52;;;7.50;99.90;;;;;;5047135;28;20038;-55
2021/12/17 01:05:00;;;;;;;19.90;9.50;;;7.50;99.90;;;;;;5049645;28;20033;-54
2021/12/17 01:07:29;;;;;;;21.88;10.30;;;7.50;99.90;;;;;;5042738;28;20026;-54
2021/12/17 01:09:55;;;;;;;21.23;10.10;;;7.50;99.90;;;;;;5050927;28;20376;-55
2021/12/17 01:12:22;;;;;;;22.05;10.13;;;7.50;99.90;;;;;;5047337;28;20029;-54
2021/12/17 01:14:49;;;;;;;22.85;10.00;;;7.50;99.90;;;;;;5044509;28;20037;-55
2021/12/17 01:17:18;;;;;;;20.13;9.65;;;7.50;99.90;;;;;;5043822;28;20082;-54
2021/12/17 01:20:18;;;;;;;20.05;9.82;;;7.50;99.90;;;;;;5031063;28;20045;-56
2021/12/17 01:35:20;;;;;;;23.85;11.55;;;7.50;99.90;;;;;;5025944;28;20123;-52
2021/12/17 01:36:13;;;;;;;23.23;10.48;;;7.50;99.90;;;;;;5050832;28;20556;-50
2021/12/17 01:44:09;;;;;;;17.58;8.93;;;7.60;99.90;;;;;;5048632;28;20445;-57
2021/12/17 01:46:37;;;;;;;20.48;9.80;;;7.60;99.90;;;;;;5047296;28;20108;-57
2021/12/17 02:00:05;;;;;;;12.07;6.65;;;7.60;99.90;;;;;;5045661;28;20124;-52
2021/12/17 02:02:37;;;;;;;15.65;7.35;;;7.60;99.90;;;;;;5050399;28;20024;-50
2021/12/17 02:05:03;;;;;;;;;;;7.60;99.90;;;;;;5047698;28;20040;-56
2021/12/17 02:07:29;;;;;;;14.10;7.45;;;7.60;99.90;;;;;;5051091;28;19908;-59
2021/12/17 02:20:39;;;;;;;17.83;7.82;;;7.60;99.90;;;;;;5048292;28;20032;-57
2021/12/17 02:28:48;;;;;;;13.65;6.32;;;7.60;99.90;;;;;;5045381;28;20548;-55
2021/12/17 02:31:27;;;;;;;13.93;7.13;;;7.60;99.90;;;;;;5046648;28;20052;-53
2021/12/17 02:33:56;;;;;;;19.50;8.50;;;7.60;99.90;;;;;;5050218;28;20020;-51
2021/12/17 02:36:26;;;;;;;17.02;9.15;;;7.60;99.90;;;;;;5048379;28;20463;-56
2021/12/17 02:39:03;;;;;;;19.48;9.10;;;7.60;99.90;;;;;;5045140;28;20040;-54
2021/12/17 02:46:58;;;;;;;16.58;8.00;;;7.60;99.90;;;;;;5046437;28;20442;-51
2021/12/17 02:49:27;;;;;;;17.90;8.05;;;7.60;99.90;;;;;;5046535;28;20759;-50
2021/12/17 02:51:53;;;;;;;14.35;7.28;;;7.60;99.90;;;;;;5045647;28;20223;-51
2021/12/17 02:54:19;;;;;;;10.65;5.60;;;7.60;99.90;;;;;;5047245;28;20166;-57
2021/12/17 02:56:45;;;;;;;13.05;6.03;;;7.50;99.90;;;;;;5045852;28;20050;-58
2021/12/17 02:59:13;;;;;;;10.73;5.55;;;7.50;99.90;;;;;;5044834;28;20106;-55
2021/12/17 03:01:42;;;;;;;11.70;5.75;;;7.60;99.90;;;;;;5047761;28;20107;-54
2021/12/17 03:04:09;;;;;;;11.93;6.03;;;7.60;99.90;;;;;;5049466;28;20021;-51
2021/12/17 03:06:35;;;;;;;11.43;5.88;;;7.60;99.90;;;;;;5048020;28;20394;-54
2021/12/17 03:09:01;;;;;;;14.65;6.60;;;7.60;99.90;;;;;;5050080;28;20104;-55
2021/12/17 03:11:27;;;;;;;13.65;6.80;;;7.60;99.90;;;;;;5047245;28;20445;-55
2021/12/17 03:13:55;;;;;;;14.45;6.45;;;7.60;99.90;;;;;;5044122;28;20087;-53
2021/12/17 03:19:08;;;;;;;10.43;4.57;;;7.60;99.90;;;;;;5043602;28;20108;-51
2021/12/17 03:24:19;;;;;;;13.38;6.07;;;7.60;99.90;;;;;;5048182;28;20413;-54
2021/12/17 03:26:45;;;;;;;12.43;5.65;;;7.60;99.90;;;;;;5049596;28;20114;-55
2021/12/17 03:29:12;;;;;;;12.02;5.90;;;7.60;99.90;;;;;;5042151;28;20343;-55
2021/12/17 03:31:38;;;;;;;13.45;6.47;;;7.60;99.90;;;;;;5047848;28;20033;-49
2021/12/17 03:34:27;;;;;;;12.85;5.80;;;7.60;99.90;;;;;;5042773;28;20037;-55
2021/12/17 03:36:54;;;;;;;11.52;5.43;;;7.60;99.90;;;;;;5040984;28;20111;-56
2021/12/17 03:39:24;;;;;;;9.82;4.97;;;7.60;99.90;;;;;;5048194;28;20053;-52
2021/12/17 03:41:51;;;;;;;11.88;5.65;;;7.60;99.90;;;;;;5051301;28;20495;-57
2021/12/17 03:44:19;;;;;;;11.48;5.55;;;7.60;99.90;;;;;;5050979;28;20037;-51
2021/12/17 03:46:46;;;;;;;12.93;5.47;;;7.60;99.90;;;;;;5051634;28;20091;-53
2021/12/17 03:49:16;;;;;;;14.20;6.03;;;7.60;99.90;;;;;;5055225;28;20055;-57
2021/12/17 03:51:52;;;;;;;10.52;5.45;;;7.60;99.90;;;;;;5051702;28;20064;-54
2021/12/17 03:54:18;;;;;;;9.77;5.00;;;7.50;99.90;;;;;;5046621;28;20025;-57
2021/12/17 03:56:44;;;;;;;10.25;5.05;;;7.50;99.90;;;;;;5036543;28;20540;-59
2021/12/17 03:59:10;;;;;;;9.30;5.22;;;7.50;99.90;;;;;;5052272;28;20078;-57
2021/12/17 04:01:37;;;;;;;8.95;4.90;;;7.50;99.90;;;;;;5018540;28;20028;-52
2021/12/17 04:04:04;;;;;;;9.82;4.88;;;7.50;99.90;;;;;;5053408;28;20082;-59
2021/12/17 04:06:30;;;;;;;10.02;4.95;;;7.50;99.90;;;;;;5051207;28;20048;-51
2021/12/17 04:08:56;;;;;;;9.85;5.40;;;7.60;99.90;;;;;;5051875;28;20466;-53
2021/12/17 04:11:22;;;;;;;11.25;6.03;;;7.60;99.90;;;;;;5050149;28;20112;-53
2021/12/17 04:13:56;;;;;;;10.65;6.35;;;7.60;99.90;;;;;;5045677;28;20033;-53
2021/12/17 04:16:27;;;;;;;13.88;6.53;;;7.60;99.90;;;;;;5045803;28;20087;-54
2021/12/17 04:18:53;;;;;;;11.48;6.75;;;7.60;99.90;;;;;;5052529;28;20037;-51
2021/12/17 04:21:20;;;;;;;10.35;5.50;;;7.60;99.90;;;;;;5040881;28;20032;-54
2021/12/17 04:23:48;;;;;;;9.88;5.03;;;7.60;99.90;;;;;;5051853;28;20186;-51
2021/12/17 04:26:15;;;;;;;8.18;5.28;;;7.60;99.90;;;;;;5050144;28;20059;-54
2021/12/17 04:28:45;;;;;;;9.05;4.50;;;7.60;99.90;;;;;;5051855;28;20025;-54
2021/12/17 04:31:11;;;;;;;9.40;4.63;;;7.60;99.90;;;;;;5042941;28;20068;-58
2021/12/17 04:33:39;;;;;;;5.97;3.42;;;7.60;99.90;;;;;;5034409;28;20025;-53
2021/12/17 04:36:06;;;;;;;4.95;3.08;;;7.50;99.90;;;;;;5043294;28;20398;-52
2021/12/17 04:38:32;;;;;;;6.47;3.20;;;7.50;99.90;;;;;;5051408;28;20033;-52
2021/12/17 04:41:17;;;;;;;5.78;3.45;;;7.50;99.90;;;;;;5044885;28;20037;-52
2021/12/17 04:43:57;;;;;;;7.97;3.30;;;7.50;99.90;;;;;;5035189;28;20088;-49
2021/12/17 04:59:51;;;;;;;4.18;2.40;;;7.40;99.90;;;;;;5031394;28;20208;-51
2021/12/17 05:02:17;;;;;;;4.05;2.03;;;7.40;99.90;;;;;;5045584;28;20478;-53
2021/12/17 05:04:44;;;;;;;4.55;2.40;;;7.30;99.90;;;;;;5048858;28;20048;-50
2021/12/17 05:07:12;;;;;;;4.78;3.10;;;7.40;99.90;;;;;;5051262;28;20482;-52
2021/12/17 05:09:51;;;;;;;4.85;2.22;;;7.40;99.90;;;;;;5049184;28;20104;-55
2021/12/17 05:20:44;;;;;;;6.30;3.30;;;7.40;99.90;;;;;;5051078;28;20036;-56
2021/12/17 05:23:10;;;;;;;10.95;3.95;;;7.40;99.90;;;;;;5043256;28;20483;-55
2021/12/17 05:25:36;;;;;;;9.15;5.63;;;7.40;99.90;;;;;;5050987;28;20025;-56
2021/12/17 05:28:02;;;;;;;8.23;3.70;;;7.40;99.90;;;;;;5049420;28;20033;-54
2021/12/17 05:30:29;;;;;;;9.27;3.83;;;7.30;99.90;;;;;;5049331;28;20056;-55
2021/12/17 05:32:56;;;;;;;11.23;4.85;;;7.30;99.90;;;;;;5043762;28;20029;-58
2021/12/17 05:35:22;;;;;;;10.18;4.03;;;7.30;99.90;;;;;;5050238;28;20084;-55
2021/12/17 05:37:48;;;;;;;10.00;4.22;;;7.30;99.90;;;;;;5049900;28;20087;-55
2021/12/17 05:40:14;;;;;;;10.82;3.90;;;7.30;99.90;;;;;;5049112;28;20068;-56
2021/12/17 05:42:41;;;;;;;9.38;3.72;;;7.20;99.90;;;;;;5043966;28;20087;-57
2021/12/17 05:45:20;;;;;;;9.45;3.60;;;7.20;99.90;;;;;;5049088;28;20113;-56
2021/12/17 05:47:46;;;;;;;11.90;4.20;;;7.20;99.90;;;;;;5030753;28;20091;-55
2021/12/17 05:50:11;;;;;;;12.50;3.90;;;7.20;99.90;;;;;;5048508;28;20025;-56
2021/12/17 05:52:37;;;;;;;11.55;3.92;;;7.10;99.90;;;;;;5047877;28;20442;-58
2021/12/17 05:55:03;;;;;;;12.50;4.07;;;7.10;99.90;;;;;;5050773;28;20109;-53
2021/12/17 05:57:29;;;;;;;9.27;3.50;;;7.10;99.90;;;;;;5047087;28;20127;-53
2021/12/17 05:59:54;;;;;;;12.88;3.70;;;7.10;99.90;;;;;;5048589;28;20107;-54
2021/12/17 06:02:20;;;;;;;11.25;3.92;;;7.10;99.90;;;;;;5041819;28;20040;-55
2021/12/17 06:04:46;;;;;;;6.32;2.42;;;7.00;99.90;;;;;;5049719;28;20017;-58
2021/12/17 06:07:12;;;;;;;5.13;2.05;;;7.00;99.90;;;;;;5047244;28;20494;-55
2021/12/17 06:09:38;;;;;;;7.88;2.75;;;6.90;99.90;;;;;;5049480;28;20025;-56
2021/12/17 06:12:04;;;;;;;6.88;2.63;;;6.80;99.90;;;;;;5043109;28;20454;-56
2021/12/17 06:14:30;;;;;;;5.82;2.38;;;6.90;99.90;;;;;;5048606;28;20051;-57
2021/12/17 06:16:57;;;;;;;5.10;2.05;;;6.90;99.90;;;;;;5042282;28;20083;-53
2021/12/17 06:19:22;;;;;;;8.05;2.75;;;6.80;99.90;;;;;;5049432;28;20033;-52
2021/12/17 06:21:48;;;;;;;6.07;1.90;;;6.80;99.90;;;;;;5044824;28;20033;-54
2021/12/17 06:24:14;;;;;;;7.57;2.40;;;6.80;99.90;;;;;;5046725;28;20032;-55
2021/12/17 06:26:40;;;;;;;6.10;2.15;;;6.80;99.90;;;;;;5047127;28;21197;-53
2021/12/17 06:29:06;;;;;;;5.65;1.92;;;6.80;99.90;;;;;;5046708;28;20021;-54
2021/12/17 06:31:31;;;;;;;6.22;2.05;;;6.80;99.90;;;;;;5047416;28;20033;-51
2021/12/17 06:33:57;;;;;;;7.32;2.90;;;6.80;99.90;;;;;;5043118;28;20029;-54
2021/12/17 06:36:23;;;;;;;10.02;3.25;;;6.80;99.90;;;;;;5047427;28;20033;-55
2021/12/17 06:38:48;;;;;;;11.20;4.50;;;6.90;99.90;;;;;;5033598;28;20438;-55
2021/12/17 06:41:14;;;;;;;11.32;4.93;;;6.90;99.90;;;;;;5028810;28;20120;-54
2021/12/17 06:43:42;;;;;;;10.07;3.30;;;6.90;99.90;;;;;;5040264;28;21069;-56
2021/12/17 06:48:43;;;;;;;11.68;4.43;;;6.90;99.90;;;;;;5047916;28;20104;-57
2021/12/17 07:10:27;;;;;;;7.88;2.53;;;6.80;99.90;;;;;;5048358;28;20529;-55
2021/12/17 07:17:13;;;;;;;8.82;2.70;;;6.80;99.90;;;;;;5040659;28;20035;-53
2021/12/17 07:34:16;;;;;;;14.95;5.75;;;6.70;99.90;;;;;;5050166;28;20048;-58
2021/12/17 07:39:17;;;;;;;14.05;5.07;;;6.70;99.90;;;;;;5051400;28;20033;-57
2021/12/17 07:41:43;;;;;;;21.77;5.50;;;6.60;99.90;;;;;;5050270;28;20025;-58
2021/12/17 07:44:10;;;;;;;9.77;4.47;;;6.70;99.90;;;;;;5036665;28;20049;-56
2021/12/17 07:46:35;;;;;;;13.95;5.53;;;6.70;99.90;;;;;;5040979;28;20029;-57
2021/12/17 07:49:01;;;;;;;12.55;4.78;;;6.60;99.90;;;;;;5053210;28;20041;-58
2021/12/17 07:51:27;;;;;;;12.70;5.00;;;6.60;99.90;;;;;;5042694;28;20032;-58
2021/12/17 07:53:54;;;;;;;12.43;5.07;;;6.60;99.90;;;;;;5051149;28;20071;-55
2021/12/17 07:56:25;;;;;;;15.30;5.03;;;6.60;99.90;;;;;;5053194;28;20025;-55
2021/12/17 07:58:51;;;;;;;12.30;4.65;;;6.70;99.90;;;;;;5049345;28;20022;-58
2021/12/17 08:01:17;;;;;;;11.50;5.40;;;6.60;99.90;;;;;;5050935;28;20037;-58
2021/12/17 08:03:43;;;;;;;14.13;5.43;;;6.60;99.90;;;;;;5048767;28;20024;-56
2021/12/17 08:06:10;;;;;;;12.68;5.13;;;6.60;99.90;;;;;;5046331;28;20501;-58
2021/12/17 08:08:36;;;;;;;14.15;5.47;;;6.70;99.90;;;;;;5047383;28;20021;-56
2021/12/17 08:11:02;;;;;;;11.80;4.97;;;6.70;99.90;;;;;;5045272;28;20044;-58
2021/12/17 08:13:31;;;;;;;14.35;5.50;;;6.70;99.90;;;;;;5049607;28;20025;-54
2021/12/17 08:31:59;;;;;;;15.15;6.05;;;6.80;99.90;;;;;;5037371;28;20029;-57
2021/12/17 08:34:25;;;;;;;14.15;5.95;;;6.80;99.90;;;;;;5048218;28;20025;-54
2021/12/17 08:36:51;;;;;;;14.07;5.78;;;6.80;99.90;;;;;;5048213;28;20044;-51
2021/12/17 08:39:17;;;;;;;12.80;6.18;;;6.80;99.90;;;;;;5051557;28;20032;-54
2021/12/17 08:41:43;;;;;;;15.90;5.85;;;6.80;99.90;;;;;;5043691;28;20104;-55
2021/12/17 08:44:09;;;;;;;22.83;7.43;;;6.80;99.90;;;;;;5049225;28;20037;-54
2021/12/17 08:46:36;;;;;;;15.18;6.57;;;6.80;99.90;;;;;;5049445;28;20039;-54
2021/12/17 08:49:03;;;;;;;13.73;6.47;;;6.80;99.90;;;;;;5049468;28;20486;-54
2021/12/17 08:51:30;;;;;;;10.43;5.75;;;6.80;99.90;;;;;;5046587;28;20120;-54
2021/12/17 08:53:55;;;;;;;11.65;5.68;;;6.80;99.90;;;;;;5044100;28;20069;-56
2021/12/17 08:56:23;;;;;;;9.20;4.78;;;6.80;99.90;;;;;;5049630;28;20063;-53
2021/12/17 08:58:53;;;;;;;13.55;5.65;;;6.80;99.90;;;;;;5051382;28;20041;-50
2021/12/17 09:01:19;;;;;;;9.57;4.53;;;6.80;99.90;;;;;;5050110;28;20111;-54
2021/12/17 09:03:45;;;;;;;12.63;5.85;;;6.70;99.90;;;;;;5050038;28;20029;-55
2021/12/17 09:06:11;;;;;;;12.93;5.28;;;6.80;99.90;;;;;;5048568;28;20048;-51
2021/12/17 09:08:36;;;;;;;11.20;4.78;;;6.80;99.90;;;;;;5050482;28;20116;-53
2021/12/17 09:11:02;;;;;;;12.43;4.68;;;6.80;99.90;;;;;;5039879;28;20506;-55
2021/12/17 09:13:28;;;;;;;10.40;4.65;;;6.80;99.90;;;;;;5042221;28;20548;-56
2021/12/17 09:15:59;;;;;;;10.68;4.97;;;6.90;99.90;;;;;;5050089;28;20091;-56
2021/12/17 09:18:25;;;;;;;11.05;4.90;;;6.90;99.90;;;;;;5049296;28;20027;-51
2021/12/17 09:20:52;;;;;;;9.93;4.68;;;7.00;99.90;;;;;;5050827;28;20033;-56
2021/12/17 09:23:18;;;;;;;12.93;5.20;;;7.00;99.90;;;;;;5048969;28;20033;-57
2021/12/17 09:25:44;;;;;;;12.15;5.53;;;7.00;99.90;;;;;;5042821;28;20111;-58
2021/12/17 09:28:10;;;;;;;11.90;5.10;;;7.00;99.90;;;;;;5040100;28;20124;-57
2021/12/17 09:30:37;;;;;;;10.30;4.85;;;7.10;99.90;;;;;;5038599;28;20025;-58
2021/12/17 09:33:03;;;;;;;11.15;4.68;;;7.10;99.90;;;;;;5045667;28;20029;-57
2021/12/17 09:35:29;;;;;;;12.88;5.43;;;7.10;99.90;;;;;;5044446;28;20029;-56
2021/12/17 09:37:55;;;;;;;11.25;4.80;;;7.20;99.90;;;;;;5049607;28;20090;-57
2021/12/17 09:40:20;;;;;;;10.68;4.75;;;7.20;99.90;;;;;;5042218;28;20044;-58
2021/12/17 09:42:47;;;;;;;7.25;4.07;;;7.30;99.90;;;;;;5049759;28;20029;-52
2021/12/17 09:45:15;;;;;;;6.35;3.30;;;7.30;99.90;;;;;;5044664;28;20021;-55
2021/12/17 09:47:41;;;;;;;4.78;2.88;;;7.20;99.90;;;;;;5049852;28;20542;-55
2021/12/17 09:50:10;;;;;;;5.20;3.10;;;7.10;99.90;;;;;;5043262;28;20059;-56
2021/12/17 09:52:36;;;;;;;5.60;3.47;;;7.10;99.90;;;;;;5047450;28;20036;-54
2021/12/17 09:55:04;;;;;;;10.25;3.95;;;7.00;99.90;;;;;;5046274;28;20494;-54
2021/12/17 09:57:35;;;;;;;7.97;3.70;;;7.00;99.90;;;;;;5048786;28;20051;-53
2021/12/17 10:00:13;;;;;;;7.17;3.87;;;7.00;99.90;;;;;;5048641;28;20471;-55
2021/12/17 10:02:43;;;;;;;6.78;3.97;;;7.00;99.90;;;;;;5032284;28;20044;-54
2021/12/17 10:05:13;;;;;;;8.85;4.20;;;6.90;99.90;;;;;;5047020;28;20037;-54
2021/12/17 10:07:41;;;;;;;9.57;5.38;;;6.90;99.90;;;;;;5047280;28;20391;-55
2021/12/17 10:10:07;;;;;;;8.55;5.13;;;6.90;99.90;;;;;;5029892;28;20079;-56
2021/12/17 10:12:36;;;;;;;8.07;4.75;;;6.90;99.90;;;;;;5039137;28;20053;-53
2021/12/17 10:15:14;;;;;;;8.40;5.38;;;6.90;99.90;;;;;;5050158;28;20510;-57
2021/12/17 10:17:59;;;;;;;8.48;4.53;;;7.00;99.90;;;;;;5045378;28;21158;-59
2021/12/17 10:20:26;;;;;;;6.03;4.18;;;7.10;99.90;;;;;;5047946;28;20485;-58
2021/12/17 10:23:01;;;;;;;8.57;4.95;;;7.10;99.90;;;;;;5041384;28;20463;-59
2021/12/17 10:25:28;;;;;;;6.43;4.00;;;7.20;99.90;;;;;;5047939;28;20108;-59
2021/12/17 10:28:01;;;;;;;4.80;3.15;;;7.20;99.90;;;;;;5041400;28;20088;-57
2021/12/17 10:30:28;;;;;;;10.73;2.83;;;7.20;99.90;;;;;;5042844;28;20103;-53
2021/12/17 10:32:57;;;;;;;5.90;2.88;;;7.10;99.90;;;;;;5048507;28;20044;-55
2021/12/17 10:35:25;;;;;;;7.22;3.00;;;7.10;99.90;;;;;;5029121;28;20551;-54
2021/12/17 10:37:59;;;;;;;5.18;2.75;;;7.20;99.90;;;;;;5035360;28;20068;-55
2021/12/17 10:40:29;;;;;;;6.15;2.60;;;7.20;99.90;;;;;;5046878;28;20461;-54
2021/12/17 10:43:06;;;;;;;5.90;3.20;;;7.00;99.90;;;;;;5045027;28;20037;-54
2021/12/17 10:45:45;;;;;;;4.90;3.00;;;7.00;99.90;;;;;;5047355;28;20140;-55
2021/12/17 10:51:44;;;;;;;7.18;4.80;;;7.00;99.90;;;;;;5024015;28;20044;-52
2021/12/17 10:54:16;;;;;;;6.70;4.57;;;7.00;99.90;;;;;;5049504;28;20037;-56
2021/12/17 10:56:42;;;;;;;7.72;4.53;;;7.00;99.90;;;;;;5041810;28;20115;-56
2021/12/17 10:59:11;;;;;;;7.93;5.32;;;7.10;99.90;;;;;;5049173;28;20436;-56
2021/12/17 11:01:59;;;;;;;8.95;5.63;;;7.10;99.90;;;;;;5041693;28;20665;-55
2021/12/17 11:04:29;;;;;;;8.18;5.57;;;7.20;99.90;;;;;;5039677;28;20108;-55
2021/12/17 11:07:04;;;;;;;8.55;5.70;;;7.20;99.90;;;;;;5045496;28;20025;-54
2021/12/17 11:09:43;;;;;;;11.48;6.70;;;7.30;99.90;;;;;;5042483;28;20029;-51
2021/12/17 11:12:30;;;;;;;12.63;7.45;;;7.30;99.90;;;;;;5049034;28;20386;-55
2021/12/17 11:15:27;;;;;;;10.50;5.90;;;7.30;99.90;;;;;;5035689;28;20127;-56
2021/12/17 11:18:01;;;;;;;23.17;8.00;;;7.40;99.90;;;;;;5037139;28;20109;-58
2021/12/17 11:20:40;;;;;;;12.77;6.88;;;7.40;99.90;;;;;;5048876;28;20037;-55
2021/12/17 11:23:11;;;;;;;17.15;7.10;;;7.50;99.90;;;;;;5027378;28;20037;-54
2021/12/17 11:25:38;;;;;;;13.07;6.22;;;7.50;99.90;;;;;;5043101;28;20028;-54
2021/12/17 11:28:07;;;;;;;11.50;6.50;;;7.40;99.90;;;;;;5048302;28;20112;-52
2021/12/17 11:30:35;;;;;;;16.40;7.10;;;7.30;99.90;;;;;;5042121;28;20029;-51
2021/12/17 11:33:04;;;;;;;10.32;6.32;;;7.30;99.90;;;;;;5034260;28;20412;-56
2021/12/17 11:35:31;;;;;;;11.15;6.80;;;7.30;99.90;;;;;;5048405;28;20104;-54
2021/12/17 11:38:01;;;;;;;11.68;6.72;;;7.30;99.90;;;;;;5041019;28;20029;-55
2021/12/17 11:40:30;;;;;;;11.80;6.63;;;7.40;99.90;;;;;;5045063;28;20475;-55
2021/12/17 11:43:20;;;;;;;13.45;5.88;;;7.40;99.90;;;;;;5056192;28;20041;-52
2021/12/17 11:45:58;;;;;;;9.45;5.40;;;7.40;99.90;;;;;;5047067;28;20037;-52
2021/12/17 11:48:26;;;;;;;10.65;5.47;;;7.50;99.90;;;;;;5042446;28;20406;-52
2021/12/17 11:51:13;;;;;;;11.40;5.32;;;7.40;99.90;;;;;;5048876;28;20025;-52
2021/12/17 11:54:09;;;;;;;10.20;4.88;;;7.40;99.90;;;;;;5048006;28;20033;-51
2021/12/17 11:56:52;;;;;;;9.80;4.75;;;7.40;99.90;;;;;;5043756;28;20036;-50
2021/12/17 11:59:27;;;;;;;10.43;5.07;;;7.40;99.90;;;;;;5034720;28;20036;-52
2021/12/17 12:02:03;;;;;;;11.05;5.15;;;7.40;99.90;;;;;;5039515;28;20055;-50
2021/12/17 12:04:32;;;;;;;10.27;5.18;;;7.40;99.90;;;;;;5029086;28;20033;-50
2021/12/17 12:07:02;;;;;;;9.63;5.28;;;7.40;99.90;;;;;;5022927;28;20627;-55
2021/12/17 12:09:57;;;;;;;13.88;6.60;;;7.40;99.90;;;;;;5020492;28;20025;-54
2021/12/17 12:12:26;;;;;;;11.38;6.05;;;7.50;99.90;;;;;;5027499;28;20171;-51
2021/12/17 12:14:53;;;;;;;16.48;7.00;;;7.50;99.90;;;;;;5021495;28;20036;-51
2021/12/17 12:17:56;;;;;;;16.05;7.40;;;7.50;99.90;;;;;;5037639;28;20032;-52
2021/12/17 12:20:55;;;;;;;17.48;8.13;;;7.50;99.90;;;;;;5024122;28;20209;-51
2021/12/17 12:23:28;;;;;;;16.23;8.15;;;7.60;99.90;;;;;;5021904;28;20445;-55
2021/12/17 12:26:02;;;;;;;19.35;9.02;;;7.60;99.90;;;;;;5022361;28;20033;-50
2021/12/17 12:28:56;;;;;;;17.48;8.52;;;7.60;99.90;;;;;;5020659;28;20540;-55
2021/12/17 12:31:30;;;;;;;20.65;8.90;;;7.60;99.90;;;;;;5025381;28;20037;-54
2021/12/17 12:36:46;;;;;;;19.15;9.00;;;7.60;99.90;;;;;;5020906;28;20028;-49
2021/12/17 12:39:39;;;;;;;17.75;8.73;;;7.50;99.90;;;;;;5022756;28;20056;-57
2021/12/17 12:42:07;;;;;;;19.50;9.38;;;7.50;99.90;;;;;;5018239;28;20146;-52
2021/12/17 12:44:42;;;;;;;18.95;8.52;;;7.60;99.90;;;;;;5020749;28;20151;-56
2021/12/17 12:47:09;;;;;;;17.38;8.75;;;7.60;99.90;;;;;;5020725;28;20033;-54
2021/12/17 12:49:54;;;;;;;18.40;9.18;;;7.60;99.90;;;;;;5037260;28;20116;-54
2021/12/17 12:52:41;;;;;;;17.60;7.50;;;7.60;99.90;;;;;;5030027;28;20036;-57
2021/12/17 12:55:24;;;;;;;16.80;7.82;;;7.70;99.90;;;;;;5012381;28;20100;-57
2021/12/17 12:57:54;;;;;;;15.02;7.40;;;7.70;99.90;;;;;;5025088;28;20043;-53
2021/12/17 13:00:27;;;;;;;16.52;7.22;;;7.70;99.90;;;;;;5017969;28;20124;-53
2021/12/17 13:02:59;;;;;;;13.38;6.95;;;7.60;99.90;;;;;;5018413;28;20674;-54
2021/12/17 13:05:25;;;;;;;14.15;7.07;;;7.60;99.90;;;;;;5018695;28;20486;-55
2021/12/17 13:07:57;;;;;;;13.68;7.70;;;7.60;99.90;;;;;;5018894;28;20458;-55
2021/12/17 13:10:26;;;;;;;15.95;7.18;;;7.70;99.90;;;;;;5020862;28;20029;-57
2021/12/17 13:13:03;;;;;;;18.02;8.00;;;7.70;99.90;;;;;;5035833;28;20571;-53
2021/12/17 13:21:19;;;;;;;18.25;8.63;;;7.60;99.90;;;;;;5028056;28;20095;-56
2021/12/17 13:23:56;;;;;;;15.38;7.28;;;7.70;99.90;;;;;;5017565;28;20036;-51
2021/12/17 13:26:25;;;;;;;17.48;8.50;;;7.70;99.90;;;;;;5035799;28;20386;-50
2021/12/17 13:29:12;;;;;;;17.10;8.80;;;7.70;99.90;;;;;;5047985;28;20035;-53
2021/12/17 13:31:39;;;;;;;19.23;8.60;;;7.70;99.90;;;;;;5049358;28;20025;-56
2021/12/17 13:34:10;;;;;;;19.58;9.07;;;7.70;99.90;;;;;;5039823;28;20038;-53
2021/12/17 13:36:37;;;;;;;20.60;7.95;;;7.70;99.90;;;;;;5040873;28;20025;-53
2021/12/17 13:39:05;;;;;;;18.60;7.80;;;7.70;99.90;;;;;;5046740;28;20123;-49
2021/12/17 13:41:42;;;;;;;17.38;7.70;;;7.70;99.90;;;;;;5037725;28;20105;-54
2021/12/17 13:44:39;;;;;;;15.93;7.32;;;7.70;99.90;;;;;;5001506;28;1107180;-50
2021/12/17 13:47:15;;;;;;;15.77;7.40;;;7.70;99.90;;;;;;5040041;28;20476;-56
2021/12/17 13:49:45;;;;;;;17.45;7.13;;;7.70;99.90;;;;;;5047061;28;20055;-49
2021/12/17 13:52:11;;;;;;;14.95;7.43;;;7.70;99.90;;;;;;5046464;28;20017;-52
2021/12/17 13:54:38;;;;;;;18.73;8.02;;;7.70;99.90;;;;;;5035243;28;20112;-52
2021/12/17 13:57:05;;;;;;;19.00;8.80;;;7.60;99.90;;;;;;5050873;28;20363;-52
2021/12/17 13:59:36;;;;;;;18.15;8.88;;;7.60;99.90;;;;;;5042058;28;20025;-52
2021/12/17 14:02:12;;;;;;;16.38;8.05;;;7.60;99.90;;;;;;5044580;28;20052;-50
2021/12/17 14:04:39;;;;;;;15.68;6.82;;;7.70;99.90;;;;;;5046268;28;20526;-56
2021/12/17 14:07:07;;;;;;;14.05;6.45;;;7.60;99.90;;;;;;5040670;28;20540;-52
2021/12/17 14:09:33;;;;;;;13.85;6.80;;;7.70;99.90;;;;;;5043714;28;20043;-54
2021/12/17 14:12:11;;;;;;;17.38;7.28;;;7.70;99.90;;;;;;5030335;28;20399;-53
2021/12/17 14:14:37;;;;;;;16.15;7.40;;;7.70;99.90;;;;;;5041256;28;20082;-52
2021/12/17 14:17:08;;;;;;;18.88;8.50;;;7.80;99.90;;;;;;5033913;28;20033;-52
2021/12/17 14:19:53;;;;;;;14.55;7.78;;;7.70;99.90;;;;;;5032773;28;20122;-49
2021/12/17 14:22:27;;;;;;;15.95;7.35;;;7.80;99.90;;;;;;5045566;28;20128;-53
2021/12/17 14:24:55;;;;;;;12.45;6.15;;;7.80;99.90;;;;;;5044476;28;20033;-54
2021/12/17 14:27:20;;;;;;;12.90;6.38;;;7.80;99.90;;;;;;5048299;28;20117;-58
2021/12/17 14:29:46;;;;;;;11.23;5.22;;;7.90;99.90;;;;;;5046163;28;20117;-51
2021/12/17 14:32:18;;;;;;;11.07;6.03;;;7.90;99.90;;;;;;5045594;28;20029;-53
2021/12/17 14:34:44;;;;;;;12.45;5.95;;;7.90;99.90;;;;;;5047901;28;20045;-50
2021/12/17 14:37:10;;;;;;;9.50;5.60;;;7.90;99.90;;;;;;5049219;28;20091;-53
2021/12/17 14:39:39;;;;;;;10.30;5.82;;;7.90;99.90;;;;;;5048393;28;20124;-53
2021/12/17 14:42:07;;;;;;;10.65;5.75;;;7.90;99.90;;;;;;5048724;28;20111;-51
2021/12/17 14:47:39;;;;;;;9.70;4.72;;;8.00;99.90;;;;;;5048817;28;20024;-55
2021/12/17 15:03:41;;;;;;;7.00;4.20;;;8.10;99.90;;;;;;5048667;28;20199;-54
2021/12/17 15:06:10;;;;;;;5.75;4.10;;;8.10;99.90;;;;;;5049405;28;20079;-51
2021/12/17 15:08:36;;;;;;;7.53;4.00;;;8.10;99.90;;;;;;5048780;28;20454;-49
2021/12/17 15:11:05;;;;;;;8.30;4.47;;;8.10;99.90;;;;;;5049144;28;20041;-51
2021/12/17 15:13:31;;;;;;;7.72;4.50;;;8.10;99.90;;;;;;5048493;28;20071;-52
2021/12/17 15:15:57;;;;;;;7.20;4.72;;;8.10;99.90;;;;;;5049177;28;20033;-53
2021/12/17 15:18:23;;;;;;;8.68;4.50;;;8.10;99.90;;;;;;5048504;28;20037;-53
2021/12/17 15:20:51;;;;;;;7.70;5.07;;;8.10;99.90;;;;;;5049201;28;20029;-53
2021/12/17 15:23:19;;;;;;;9.68;5.32;;;8.10;99.90;;;;;;5048546;28;20517;-51
2021/12/17 15:25:46;;;;;;;8.75;4.78;;;8.10;99.90;;;;;;5048644;28;20087;-53
2021/12/17 15:28:15;;;;;;;9.80;5.30;;;8.10;99.90;;;;;;5049231;28;20029;-51
2021/12/17 15:30:49;;;;;;;12.10;5.95;;;8.10;99.90;;;;;;5048783;28;20025;-51
2021/12/17 15:33:15;;;;;;;10.38;6.10;;;8.10;99.90;;;;;;5048568;28;20051;-52
2021/12/17 15:35:42;;;;;;;9.30;5.93;;;8.10;99.90;;;;;;5049129;28;20044;-52
2021/12/17 15:38:09;;;;;;;8.20;5.55;;;8.10;99.90;;;;;;5052763;28;20451;-52
2021/12/17 15:40:36;;;;;;;10.23;5.30;;;8.10;99.90;;;;;;5052650;28;20486;-51
2021/12/17 15:43:03;;;;;;;9.57;5.63;;;8.10;99.90;;;;;;5052129;28;20083;-52
2021/12/17 15:45:41;;;;;;;7.90;4.63;;;8.10;99.90;;;;;;5052379;28;20124;-52
2021/12/17 15:48:08;;;;;;;9.05;4.43;;;8.10;99.90;;;;;;5051603;28;20044;-49
2021/12/17 15:50:34;;;;;;;8.02;4.82;;;8.00;99.90;;;;;;5052360;28;20029;-51
2021/12/17 15:53:00;;;;;;;6.50;4.10;;;7.90;99.90;;;;;;5052284;28;20313;-51
2021/12/17 15:55:28;;;;;;;8.32;4.55;;;8.00;99.90;;;;;;5052754;28;20029;-53
2021/12/17 15:57:56;;;;;;;8.18;4.88;;;7.90;99.90;;;;;;5052922;28;20094;-51
2021/12/17 16:00:28;;;;;;;8.23;4.78;;;7.90;99.90;;;;;;5052716;28;20116;-51
2021/12/17 16:02:54;;;;;;;7.30;5.03;;;7.90;99.90;;;;;;5052191;28;20025;-52
2021/12/17 16:05:22;;;;;;;8.30;5.20;;;7.80;99.90;;;;;;5052615;28;20036;-52
2021/12/17 16:07:51;;;;;;;10.27;5.88;;;7.80;99.90;;;;;;5051591;28;20449;-51
2021/12/17 16:11:07;;;;;;;11.50;6.78;;;7.80;99.90;;;;;;5052510;28;20026;-51
2021/12/17 16:21:06;;;;;;;13.38;7.90;;;7.80;99.90;;;;;;5052567;28;20025;-51
2021/12/17 16:23:39;;;;;;;15.15;8.70;;;7.80;99.90;;;;;;5051306;28;20033;-52
2021/12/17 16:26:07;;;;;;;17.60;9.75;;;7.80;99.90;;;;;;5052054;28;20025;-51
2021/12/17 16:28:34;;;;;;;16.02;9.13;;;7.80;99.90;;;;;;5051942;28;20032;-50
2021/12/17 16:31:11;;;;;;;15.82;9.27;;;7.70;99.90;;;;;;5052324;28;20390;-51